Time;durP1;ratioP1;P1;durP2;ratioP2;P2;SDS_P1;SDS_P2;PMS_P1;PMS_P2;Temp;Humidity;BMP_temperature;BMP_pressure;BME280_temperature;BME280_humidity;BME280_pressure;Samples;Min_cycle;Max_cycle;Signal;HPM_P1;HPM_P2
2023/05/07 00:02:21;;;;;;;15.40;11.02;;;14.50;99.90;;;;;;5047764;28;20211;-69
2023/05/07 00:04:46;;;;;;;15.32;10.95;;;14.50;99.90;;;;;;5051721;28;20037;-69
2023/05/07 00:07:12;;;;;;;14.70;11.05;;;14.50;99.90;;;;;;5058191;28;20052;-69
2023/05/07 00:09:37;;;;;;;15.57;11.35;;;14.40;99.90;;;;;;5052030;28;20037;-69
2023/05/07 00:12:03;;;;;;;16.17;11.80;;;14.40;99.90;;;;;;5056653;28;20036;-69
2023/05/07 00:14:29;;;;;;;17.05;11.75;;;14.40;99.90;;;;;;5058482;28;20036;-69
2023/05/07 00:16:55;;;;;;;17.80;11.52;;;14.30;99.90;;;;;;5047895;28;20514;-69
2023/05/07 00:19:21;;;;;;;16.58;11.95;;;14.30;99.90;;;;;;5048721;28;20526;-69
2023/05/07 00:21:46;;;;;;;18.15;13.13;;;14.30;99.90;;;;;;5059070;28;20124;-69
2023/05/07 00:24:12;;;;;;;17.25;13.13;;;14.30;99.90;;;;;;5050527;28;20119;-69
2023/05/07 00:26:37;;;;;;;21.88;13.63;;;14.30;99.90;;;;;;5048616;28;20037;-69
2023/05/07 00:29:03;;;;;;;18.77;13.07;;;14.20;99.90;;;;;;5052529;28;20044;-69
2023/05/07 00:31:28;;;;;;;20.05;14.55;;;14.30;99.90;;;;;;5050717;28;20468;-69
2023/05/07 00:33:54;;;;;;;24.55;15.13;;;14.20;99.90;;;;;;5051474;28;20490;-69
2023/05/07 00:36:19;;;;;;;20.70;14.38;;;14.20;99.90;;;;;;5047516;28;20044;-69
2023/05/07 00:38:45;;;;;;;21.05;15.52;;;14.10;99.90;;;;;;5054707;28;20048;-69
2023/05/07 00:41:11;;;;;;;23.63;16.70;;;14.10;99.90;;;;;;5052294;28;20044;-69
2023/05/07 00:43:36;;;;;;;25.20;16.48;;;14.10;99.90;;;;;;5049443;28;20033;-69
2023/05/07 00:46:02;;;;;;;24.25;16.40;;;14.10;99.90;;;;;;5049976;28;20040;-69
2023/05/07 00:48:27;;;;;;;25.70;17.17;;;14.10;99.90;;;;;;5049748;28;21593;-68
2023/05/07 00:50:53;;;;;;;26.20;17.30;;;14.10;99.90;;;;;;5050592;28;20090;-69
2023/05/07 00:53:20;;;;;;;25.33;18.08;;;14.00;99.90;;;;;;5040160;28;20036;-69
2023/05/07 00:55:45;;;;;;;24.60;16.88;;;14.00;99.90;;;;;;5049635;28;20041;-69
2023/05/07 00:58:11;;;;;;;25.00;16.83;;;13.90;99.90;;;;;;5048526;28;20087;-69
2023/05/07 01:00:36;;;;;;;24.88;16.92;;;13.90;99.90;;;;;;5050283;28;20063;-69
2023/05/07 01:03:02;;;;;;;23.33;17.08;;;13.90;99.90;;;;;;5050806;28;20045;-69
2023/05/07 01:05:30;;;;;;;25.77;17.90;;;13.80;99.90;;;;;;5048946;28;20107;-69
2023/05/07 01:07:57;;;;;;;24.20;17.33;;;13.80;99.90;;;;;;5048374;28;20033;-69
2023/05/07 01:10:23;;;;;;;26.55;17.83;;;13.80;99.90;;;;;;5049968;28;20036;-70
2023/05/07 01:12:50;;;;;;;26.08;17.85;;;13.80;99.90;;;;;;5049118;28;20041;-69
2023/05/07 01:15:16;;;;;;;25.73;18.20;;;13.70;99.90;;;;;;5058281;28;20033;-69
2023/05/07 01:17:42;;;;;;;27.77;18.15;;;13.70;99.90;;;;;;5050231;28;20091;-69
2023/05/07 01:20:10;;;;;;;27.48;18.08;;;13.70;99.90;;;;;;5050055;28;20037;-69
2023/05/07 01:22:37;;;;;;;25.58;17.90;;;13.60;99.90;;;;;;5054617;28;20033;-70
2023/05/07 01:25:04;;;;;;;23.70;17.48;;;13.60;99.90;;;;;;5066833;28;20491;-70
2023/05/07 01:27:29;;;;;;;23.77;17.52;;;13.50;99.90;;;;;;5054115;28;20037;-70
2023/05/07 01:29:58;;;;;;;25.73;18.60;;;13.50;99.90;;;;;;5053052;28;20098;-69
2023/05/07 01:32:32;;;;;;;24.73;18.38;;;13.40;99.90;;;;;;5053833;28;20517;-70
2023/05/07 01:34:59;;;;;;;25.45;18.25;;;13.40;99.90;;;;;;5052985;28;20037;-69
2023/05/07 01:37:26;;;;;;;26.45;18.75;;;13.30;99.90;;;;;;5066391;22;20460;-65
2023/05/07 01:39:52;;;;;;;23.85;17.92;;;13.30;99.90;;;;;;5051357;28;20082;-65
2023/05/07 01:42:18;;;;;;;26.30;17.80;;;13.20;99.90;;;;;;5052898;28;20102;-65
2023/05/07 01:44:44;;;;;;;31.10;18.65;;;13.20;99.90;;;;;;5049670;28;20479;-66
2023/05/07 01:47:10;;;;;;;29.15;19.25;;;13.10;99.90;;;;;;5055985;28;20059;-65
2023/05/07 01:49:36;;;;;;;28.90;19.80;;;13.10;99.90;;;;;;5072036;28;20045;-65
2023/05/07 01:52:01;;;;;;;28.33;19.85;;;13.10;99.90;;;;;;5059293;28;20399;-65
2023/05/07 01:54:27;;;;;;;30.08;19.88;;;13.10;99.90;;;;;;5062812;28;20121;-65
2023/05/07 01:56:53;;;;;;;29.80;20.92;;;13.10;99.90;;;;;;5046972;28;20033;-65
2023/05/07 01:59:19;;;;;;;32.88;20.63;;;13.10;99.90;;;;;;5050683;28;20029;-65
2023/05/07 02:01:45;;;;;;;32.13;19.77;;;13.00;99.90;;;;;;5044711;28;20040;-65
2023/05/07 02:04:13;;;;;;;30.52;20.60;;;13.00;99.90;;;;;;5044642;28;20128;-67
2023/05/07 02:06:42;;;;;;;29.08;20.42;;;13.00;99.90;;;;;;5052624;28;20044;-66
2023/05/07 02:09:08;;;;;;;31.40;20.70;;;13.00;99.90;;;;;;5051316;28;20043;-67
2023/05/07 02:11:34;;;;;;;33.58;21.52;;;12.90;99.90;;;;;;5048019;28;20108;-68
2023/05/07 02:14:00;;;;;;;31.33;21.80;;;12.90;99.90;;;;;;5052189;28;20120;-66
2023/05/07 02:16:25;;;;;;;32.13;21.73;;;12.90;99.90;;;;;;5051408;28;20029;-66
2023/05/07 02:18:51;;;;;;;35.05;21.27;;;12.80;99.90;;;;;;5030347;28;20041;-66
2023/05/07 02:21:16;;;;;;;35.15;22.85;;;12.80;99.90;;;;;;5050128;28;20039;-66
2023/05/07 02:23:42;;;;;;;34.50;21.98;;;12.80;99.90;;;;;;5056871;28;20044;-67
2023/05/07 02:26:07;;;;;;;33.00;22.20;;;12.80;99.90;;;;;;5053894;28;20384;-67
2023/05/07 02:28:35;;;;;;;38.03;22.45;;;12.70;99.90;;;;;;5046678;28;20091;-67
2023/05/07 02:31:05;;;;;;;34.17;22.77;;;12.70;99.90;;;;;;5049313;28;20485;-67
2023/05/07 02:33:31;;;;;;;34.53;22.65;;;12.70;99.90;;;;;;5032535;28;20041;-66
2023/05/07 02:35:56;;;;;;;35.38;21.85;;;12.70;99.90;;;;;;5049408;28;20068;-65
2023/05/07 02:38:23;;;;;;;36.67;23.75;;;12.70;99.90;;;;;;5051866;28;20043;-66
2023/05/07 02:40:48;;;;;;;37.17;24.38;;;12.70;99.90;;;;;;5046690;28;20505;-65
2023/05/07 02:43:14;;;;;;;36.03;22.83;;;12.60;99.90;;;;;;5034210;28;20036;-66
2023/05/07 02:45:39;;;;;;;36.53;23.85;;;12.60;99.90;;;;;;5048018;28;20045;-65
2023/05/07 02:48:06;;;;;;;39.22;24.33;;;12.60;99.90;;;;;;5050792;28;20496;-66
2023/05/07 02:50:32;;;;;;;37.50;23.13;;;12.60;99.90;;;;;;5048001;28;20037;-65
2023/05/07 02:52:58;;;;;;;38.95;24.33;;;12.60;99.90;;;;;;5051005;28;20033;-65
2023/05/07 02:55:24;;;;;;;37.17;24.52;;;12.60;99.90;;;;;;5049000;28;20448;-67
2023/05/07 02:57:49;;;;;;;37.38;24.33;;;12.60;99.90;;;;;;5051865;28;20178;-66
2023/05/07 03:00:17;;;;;;;41.97;24.40;;;12.60;99.90;;;;;;5048149;28;20074;-66
2023/05/07 03:02:44;;;;;;;39.70;25.25;;;12.50;99.90;;;;;;5048357;28;20033;-66
2023/05/07 03:05:10;;;;;;;41.38;26.20;;;12.50;99.90;;;;;;5047784;28;20036;-67
2023/05/07 03:07:36;;;;;;;42.55;25.60;;;12.50;99.90;;;;;;5049325;28;20064;-67
2023/05/07 03:10:02;;;;;;;40.33;26.05;;;12.50;99.90;;;;;;5048881;28;20141;-66
2023/05/07 03:12:28;;;;;;;46.00;27.25;;;12.40;99.90;;;;;;5054452;28;20048;-66
2023/05/07 03:14:54;;;;;;;43.17;25.83;;;12.50;99.90;;;;;;5050499;28;20052;-66
2023/05/07 03:17:22;;;;;;;41.63;26.52;;;12.40;99.90;;;;;;5052515;28;20041;-65
2023/05/07 03:19:47;;;;;;;43.50;27.25;;;12.50;99.90;;;;;;5044897;28;20467;-67
2023/05/07 03:22:13;;;;;;;43.90;27.75;;;12.40;99.90;;;;;;5048461;28;20086;-67
2023/05/07 03:24:38;;;;;;;45.08;27.80;;;12.40;99.90;;;;;;5054901;28;20130;-66
2023/05/07 03:27:04;;;;;;;43.33;26.88;;;12.40;99.90;;;;;;5048086;28;20037;-68
2023/05/07 03:29:29;;;;;;;41.45;25.90;;;12.40;99.90;;;;;;5050415;28;20047;-67
2023/05/07 03:31:58;;;;;;;46.38;27.30;;;12.40;99.90;;;;;;5054808;28;20028;-67
2023/05/07 03:34:23;;;;;;;42.97;27.63;;;12.40;99.90;;;;;;5049220;28;20061;-67
2023/05/07 03:36:49;;;;;;;48.28;27.85;;;12.30;99.90;;;;;;5046080;28;20044;-67
2023/05/07 03:39:15;;;;;;;45.08;28.30;;;12.40;99.90;;;;;;5048273;28;20025;-66
2023/05/07 03:41:40;;;;;;;46.47;27.13;;;12.40;99.90;;;;;;5048052;28;20122;-67
2023/05/07 03:44:06;;;;;;;43.58;29.05;;;12.30;99.90;;;;;;5050305;28;20033;-66
2023/05/07 03:46:33;;;;;;;51.40;29.75;;;12.40;99.90;;;;;;5048067;28;20534;-67
2023/05/07 03:48:59;;;;;;;45.97;27.77;;;12.30;99.90;;;;;;5048914;28;20036;-67
2023/05/07 03:51:26;;;;;;;41.00;27.85;;;12.30;99.90;;;;;;5046970;28;20029;-64
2023/05/07 03:53:56;;;;;;;40.55;26.92;;;12.30;99.90;;;;;;5047339;28;20129;-64
2023/05/07 03:56:22;;;;;;;44.63;27.00;;;12.30;99.90;;;;;;5047876;28;20041;-67
2023/05/07 03:58:48;;;;;;;42.38;27.27;;;12.20;99.90;;;;;;5050185;28;20040;-67
2023/05/07 04:01:14;;;;;;;42.25;26.95;;;12.20;99.90;;;;;;5051877;28;20025;-66
2023/05/07 04:03:39;;;;;;;45.58;27.35;;;12.20;99.90;;;;;;5060082;28;20479;-67
2023/05/07 04:06:05;;;;;;;45.88;28.20;;;12.20;99.90;;;;;;5046497;28;20041;-67
2023/05/07 04:08:31;;;;;;;45.25;28.55;;;12.30;99.90;;;;;;5050371;28;20040;-66
2023/05/07 04:10:58;;;;;;;41.53;26.75;;;12.20;99.90;;;;;;5045100;28;20028;-66
2023/05/07 04:13:24;;;;;;;40.53;26.58;;;12.30;99.90;;;;;;5049278;28;20103;-67
2023/05/07 04:15:49;;;;;;;41.22;26.30;;;12.30;99.90;;;;;;5049509;28;20037;-67
2023/05/07 04:18:15;;;;;;;41.35;26.38;;;12.30;99.90;;;;;;5049885;28;20029;-65
2023/05/07 04:20:41;;;;;;;39.80;25.58;;;12.20;99.90;;;;;;5056578;28;20408;-65
2023/05/07 04:23:07;;;;;;;38.65;25.25;;;12.20;99.90;;;;;;5047877;28;20061;-66
2023/05/07 04:25:33;;;;;;;45.95;27.20;;;12.20;99.90;;;;;;5047542;28;20033;-67
2023/05/07 04:27:58;;;;;;;42.90;26.73;;;12.30;99.90;;;;;;5048729;28;20036;-66
2023/05/07 04:30:24;;;;;;;41.00;25.48;;;12.30;99.90;;;;;;5056278;28;20063;-66
2023/05/07 04:32:50;;;;;;;39.05;26.10;;;12.30;99.90;;;;;;5053984;28;20093;-65
2023/05/07 04:35:16;;;;;;;41.17;26.25;;;12.20;99.90;;;;;;5057560;28;20037;-65
2023/05/07 04:37:42;;;;;;;42.25;26.65;;;12.20;99.90;;;;;;5048022;28;20505;-64
2023/05/07 04:40:08;;;;;;;41.72;25.75;;;12.20;99.90;;;;;;5045779;28;20108;-65
2023/05/07 04:42:33;;;;;;;41.55;25.73;;;12.20;99.90;;;;;;5046791;28;20403;-65
2023/05/07 04:45:05;;;;;;;40.08;25.60;;;12.20;99.90;;;;;;5043943;28;20391;-68
2023/05/07 04:47:30;;;;;;;41.83;26.38;;;12.20;99.90;;;;;;5027678;28;20060;-66
2023/05/07 04:50:00;;;;;;;37.03;24.90;;;12.20;99.90;;;;;;5029609;28;20487;-66
2023/05/07 04:52:28;;;;;;;38.47;25.42;;;12.20;99.90;;;;;;5048257;28;20044;-67
2023/05/07 04:54:54;;;;;;;39.00;24.67;;;12.20;99.90;;;;;;5024216;28;20550;-68
2023/05/07 04:57:20;;;;;;;38.15;24.17;;;12.20;99.90;;;;;;5032143;28;20115;-69
2023/05/07 04:59:45;;;;;;;37.72;25.15;;;12.30;99.90;;;;;;5048369;28;20048;-68
2023/05/07 05:02:15;;;;;;;37.35;25.23;;;12.20;99.90;;;;;;5033780;28;20037;-68
2023/05/07 05:04:41;;;;;;;37.00;24.23;;;12.30;99.90;;;;;;5036025;28;20041;-66
2023/05/07 05:07:07;;;;;;;36.38;24.00;;;12.30;99.90;;;;;;5032486;28;20040;-67
2023/05/07 05:09:33;;;;;;;36.67;24.10;;;12.30;99.90;;;;;;5054293;28;20033;-67
2023/05/07 05:11:59;;;;;;;38.78;24.38;;;12.30;99.90;;;;;;5050236;28;20166;-67
2023/05/07 05:14:31;;;;;;;36.33;23.27;;;12.30;99.90;;;;;;5053994;28;20045;-69
2023/05/07 05:17:04;;;;;;;37.33;23.35;;;12.30;99.90;;;;;;5032019;28;20068;-68
2023/05/07 05:19:30;;;;;;;35.40;23.40;;;12.30;99.90;;;;;;5031768;28;20123;-67
2023/05/07 05:21:56;;;;;;;32.35;23.10;;;12.30;99.90;;;;;;5030951;28;20120;-66
2023/05/07 05:24:21;;;;;;;37.85;23.52;;;12.30;99.90;;;;;;5036157;28;20064;-68
2023/05/07 05:26:48;;;;;;;38.25;24.25;;;12.30;99.90;;;;;;5034925;28;20048;-67
2023/05/07 05:29:13;;;;;;;34.33;23.58;;;12.30;99.90;;;;;;5033357;28;20120;-68
2023/05/07 05:31:39;;;;;;;35.03;23.92;;;12.30;99.90;;;;;;5034171;28;20153;-67
2023/05/07 05:34:05;;;;;;;34.85;24.08;;;12.40;99.90;;;;;;5048470;28;20124;-67
2023/05/07 05:36:30;;;;;;;36.13;23.38;;;12.40;99.90;;;;;;5051353;28;20029;-67
2023/05/07 05:38:56;;;;;;;36.78;24.13;;;12.40;99.90;;;;;;5054202;28;20118;-67
2023/05/07 05:41:21;;;;;;;38.30;23.30;;;12.50;99.90;;;;;;5053097;28;20037;-66
2023/05/07 05:43:47;;;;;;;35.08;23.65;;;12.50;99.90;;;;;;5049417;28;20039;-66
2023/05/07 05:46:12;;;;;;;35.65;23.17;;;12.40;99.90;;;;;;5052997;28;20136;-67
2023/05/07 05:48:38;;;;;;;39.42;24.73;;;12.50;99.90;;;;;;5053013;28;20108;-67
2023/05/07 05:51:03;;;;;;;39.30;25.80;;;12.50;99.90;;;;;;5058164;28;20032;-67
2023/05/07 05:53:29;;;;;;;38.00;24.25;;;12.50;99.90;;;;;;5061878;28;20044;-67
2023/05/07 05:55:54;;;;;;;37.58;24.05;;;12.50;99.90;;;;;;5053072;28;20092;-67
2023/05/07 05:58:20;;;;;;;37.15;23.92;;;12.50;99.90;;;;;;5051794;28;20108;-67
2023/05/07 06:00:48;;;;;;;36.75;24.17;;;12.60;99.90;;;;;;5048979;28;20036;-67
2023/05/07 06:03:13;;;;;;;35.40;24.08;;;12.60;99.90;;;;;;5052720;28;20104;-66
2023/05/07 06:05:39;;;;;;;39.10;24.20;;;12.70;99.90;;;;;;5060599;28;20451;-67
2023/05/07 06:08:04;;;;;;;35.10;24.70;;;12.70;99.90;;;;;;5051605;28;20083;-67
2023/05/07 06:10:30;;;;;;;36.25;23.50;;;12.80;99.90;;;;;;5044424;28;20103;-67
2023/05/07 06:12:56;;;;;;;38.75;24.88;;;12.70;99.90;;;;;;5047420;28;20071;-67
2023/05/07 06:15:21;;;;;;;40.75;25.23;;;12.70;99.90;;;;;;5048168;28;20040;-66
2023/05/07 06:17:47;;;;;;;39.35;25.63;;;12.70;99.90;;;;;;5054929;28;20032;-65
2023/05/07 06:20:12;;;;;;;40.38;25.83;;;12.70;99.90;;;;;;5051170;28;20479;-65
2023/05/07 06:22:38;;;;;;;36.47;24.60;;;12.70;99.90;;;;;;5046358;28;20036;-65
2023/05/07 06:25:04;;;;;;;37.60;24.77;;;12.80;99.90;;;;;;5047329;28;20040;-65
2023/05/07 06:27:29;;;;;;;43.72;26.73;;;12.80;99.90;;;;;;5027546;28;20057;-66
2023/05/07 06:29:55;;;;;;;39.47;26.20;;;12.80;99.90;;;;;;5047697;28;20094;-67
2023/05/07 06:32:21;;;;;;;38.83;24.52;;;12.80;99.90;;;;;;5042398;28;20120;-67
2023/05/07 06:34:46;;;;;;;40.95;25.85;;;12.80;99.90;;;;;;5042209;28;20379;-67
2023/05/07 06:37:12;;;;;;;39.47;26.08;;;12.80;99.90;;;;;;5040327;28;20045;-65
2023/05/07 06:39:37;;;;;;;38.33;25.45;;;12.80;99.90;;;;;;5042071;28;20518;-66
2023/05/07 06:42:04;;;;;;;41.67;26.70;;;12.80;99.90;;;;;;5038834;28;20040;-66
2023/05/07 06:44:30;;;;;;;41.67;25.38;;;12.80;99.90;;;;;;5044553;28;21605;-65
2023/05/07 06:46:56;;;;;;;40.05;26.20;;;12.80;99.90;;;;;;5045842;28;21349;-66
2023/05/07 06:49:22;;;;;;;38.75;26.23;;;12.90;99.90;;;;;;5048249;28;20116;-66
2023/05/07 06:51:47;;;;;;;42.22;26.92;;;12.80;99.90;;;;;;5045631;28;20052;-67
2023/05/07 06:54:13;;;;;;;40.00;26.38;;;12.90;99.90;;;;;;5046174;28;20048;-66
2023/05/07 06:56:38;;;;;;;42.70;26.05;;;13.00;99.90;;;;;;5043001;28;20495;-66
2023/05/07 06:59:04;;;;;;;42.15;27.52;;;12.90;99.90;;;;;;5047920;28;20037;-66
2023/05/07 07:01:29;;;;;;;42.40;27.23;;;13.00;99.90;;;;;;5050303;28;20037;-64
2023/05/07 07:03:55;;;;;;;40.97;25.08;;;13.00;99.90;;;;;;5051716;28;20035;-63
2023/05/07 07:06:21;;;;;;;40.83;26.70;;;13.00;99.90;;;;;;5047078;28;20406;-63
2023/05/07 07:08:46;;;;;;;39.13;25.98;;;13.00;99.90;;;;;;5047241;28;20078;-63
2023/05/07 07:11:12;;;;;;;40.78;26.83;;;13.00;99.90;;;;;;5048135;28;20322;-63
2023/05/07 07:13:37;;;;;;;47.13;28.45;;;13.00;99.90;;;;;;5059080;28;20071;-63
2023/05/07 07:16:03;;;;;;;43.20;27.80;;;13.00;99.90;;;;;;5049881;28;20764;-63
2023/05/07 07:18:29;;;;;;;42.40;27.45;;;13.10;99.90;;;;;;5049211;28;20037;-63
2023/05/07 07:20:54;;;;;;;44.75;28.77;;;13.10;99.90;;;;;;5047050;28;20132;-63
2023/05/07 07:23:20;;;;;;;39.53;25.88;;;13.10;99.90;;;;;;5048208;28;20438;-63
2023/05/07 07:25:46;;;;;;;42.70;27.67;;;13.20;99.90;;;;;;5048063;28;20119;-63
2023/05/07 07:28:11;;;;;;;43.17;27.27;;;13.20;99.90;;;;;;5048525;28;20113;-63
2023/05/07 07:30:37;;;;;;;44.60;27.90;;;13.20;99.90;;;;;;5051244;28;20449;-63
2023/05/07 07:33:03;;;;;;;44.78;28.67;;;13.30;99.90;;;;;;5055424;28;20036;-63
2023/05/07 07:35:29;;;;;;;44.20;27.38;;;13.30;99.90;;;;;;5048896;28;20032;-63
2023/05/07 07:37:55;;;;;;;45.72;28.10;;;13.30;99.90;;;;;;5075714;22;20041;-66
2023/05/07 07:40:21;;;;;;;44.67;28.27;;;13.40;99.90;;;;;;5070036;28;20028;-66
2023/05/07 07:42:46;;;;;;;43.58;28.13;;;13.50;99.90;;;;;;5064296;28;20032;-66
2023/05/07 07:45:12;;;;;;;45.65;27.48;;;13.50;99.90;;;;;;5066525;28;20041;-66
2023/05/07 07:47:39;;;;;;;42.72;27.85;;;13.60;99.90;;;;;;5070881;28;20029;-66
2023/05/07 07:50:05;;;;;;;42.88;27.88;;;13.60;99.90;;;;;;5069014;28;20045;-66
2023/05/07 07:52:31;;;;;;;42.88;27.58;;;13.60;99.90;;;;;;5069875;28;20041;-66
2023/05/07 07:54:56;;;;;;;42.60;26.08;;;13.60;99.90;;;;;;5069595;28;20579;-66
2023/05/07 07:57:22;;;;;;;44.80;28.00;;;13.60;99.90;;;;;;5070518;28;20119;-67
2023/05/07 07:59:47;;;;;;;46.47;28.40;;;13.70;99.90;;;;;;5068409;28;20043;-67
2023/05/07 08:02:13;;;;;;;45.20;26.90;;;13.70;99.90;;;;;;5069972;28;20066;-67
2023/05/07 08:04:38;;;;;;;40.95;26.45;;;13.70;99.90;;;;;;5062806;28;20044;-67
2023/05/07 08:07:04;;;;;;;40.03;27.13;;;13.80;99.90;;;;;;5069485;28;20355;-67
2023/05/07 08:09:30;;;;;;;42.08;27.02;;;13.80;99.90;;;;;;5058169;28;20033;-67
2023/05/07 08:11:55;;;;;;;45.15;27.10;;;13.90;99.90;;;;;;5066104;28;20044;-68
2023/05/07 08:14:23;;;;;;;46.65;27.88;;;14.00;99.90;;;;;;5063471;28;20106;-68
2023/05/07 08:16:49;;;;;;;43.15;26.52;;;14.20;99.90;;;;;;5065745;28;20483;-71
2023/05/07 08:19:14;;;;;;;42.05;26.60;;;14.20;99.90;;;;;;5068219;28;20114;-69
2023/05/07 08:21:40;;;;;;;40.63;26.52;;;14.40;99.90;;;;;;5064311;28;20043;-67
2023/05/07 08:24:06;;;;;;;39.95;26.73;;;14.40;99.90;;;;;;5066687;28;20051;-67
2023/05/07 08:26:31;;;;;;;41.65;27.35;;;14.50;99.90;;;;;;5063795;28;20444;-70
2023/05/07 08:28:57;;;;;;;41.78;28.35;;;14.60;99.90;;;;;;5068900;28;20036;-67
2023/05/07 08:31:23;;;;;;;40.30;27.08;;;14.70;99.90;;;;;;5070013;28;20119;-70
2023/05/07 08:33:50;;;;;;;41.42;26.83;;;14.80;99.90;;;;;;5072822;28;20044;-68
2023/05/07 08:36:15;;;;;;;39.25;26.00;;;14.90;99.90;;;;;;5069067;28;20037;-69
2023/05/07 08:38:42;;;;;;;40.10;26.20;;;15.00;99.90;;;;;;5068663;28;20033;-69
2023/05/07 08:41:10;;;;;;;41.80;26.52;;;15.00;99.90;;;;;;5048668;28;20037;-68
2023/05/07 08:43:37;;;;;;;39.67;25.85;;;15.10;99.90;;;;;;5072512;28;20040;-69
2023/05/07 08:46:04;;;;;;;37.45;26.17;;;15.20;99.90;;;;;;5073489;28;20132;-68
2023/05/07 08:48:32;;;;;;;40.53;26.17;;;15.30;99.90;;;;;;5049817;28;20167;-68
2023/05/07 08:50:59;;;;;;;40.03;25.60;;;15.30;99.90;;;;;;5067457;28;20047;-68
2023/05/07 08:53:24;;;;;;;36.83;25.30;;;15.40;99.90;;;;;;5070137;28;20082;-68
2023/05/07 08:55:50;;;;;;;37.90;24.92;;;15.40;99.90;;;;;;5073878;28;20032;-68
2023/05/07 08:58:16;;;;;;;39.63;24.00;;;15.30;99.90;;;;;;5073468;28;20036;-69
2023/05/07 09:00:42;;;;;;;36.92;25.08;;;15.40;99.90;;;;;;5068455;28;20046;-69
2023/05/07 09:03:07;;;;;;;37.08;25.42;;;15.60;99.90;;;;;;5074034;28;20032;-68
2023/05/07 09:05:33;;;;;;;37.33;24.73;;;15.80;99.90;;;;;;5074405;28;20040;-69
2023/05/07 09:07:59;;;;;;;36.40;25.00;;;16.00;99.90;;;;;;5072559;28;20032;-69
2023/05/07 09:10:26;;;;;;;37.28;25.00;;;16.10;99.90;;;;;;5073617;28;20111;-69
2023/05/07 09:12:51;;;;;;;34.60;23.27;;;16.30;99.90;;;;;;5071640;28;20032;-69
2023/05/07 09:15:18;;;;;;;32.13;22.77;;;16.30;99.90;;;;;;5073626;28;20048;-69
2023/05/07 09:17:44;;;;;;;33.42;23.48;;;16.40;99.90;;;;;;5070518;28;20036;-70
2023/05/07 09:20:10;;;;;;;32.85;22.38;;;16.50;99.90;;;;;;5071026;28;20028;-70
2023/05/07 09:22:38;;;;;;;34.78;23.58;;;16.60;99.90;;;;;;5073726;28;20033;-70
2023/05/07 09:25:07;;;;;;;34.53;22.67;;;16.50;99.90;;;;;;5074021;28;20044;-70
2023/05/07 09:27:32;;;;;;;33.13;22.10;;;16.60;99.90;;;;;;5073641;28;20040;-70
2023/05/07 09:29:58;;;;;;;33.08;23.13;;;16.60;99.90;;;;;;5073106;28;20055;-69
2023/05/07 09:32:24;;;;;;;32.33;22.70;;;16.60;99.90;;;;;;5068285;28;20044;-70
2023/05/07 09:34:50;;;;;;;30.40;21.75;;;16.60;99.90;;;;;;5072952;28;20052;-69
2023/05/07 09:37:16;;;;;;;33.58;23.48;;;16.70;99.90;;;;;;5073024;28;20430;-69
2023/05/07 09:39:46;;;;;;;31.45;21.73;;;16.70;99.90;;;;;;5071670;28;20402;-69
2023/05/07 09:42:14;;;;;;;30.52;21.58;;;16.90;99.90;;;;;;5073709;28;20396;-69
2023/05/07 09:44:40;;;;;;;30.40;22.38;;;16.90;99.90;;;;;;5072667;28;20123;-70
2023/05/07 09:47:07;;;;;;;32.40;23.05;;;17.00;99.90;;;;;;5065291;28;20123;-68
2023/05/07 09:49:37;;;;;;;32.00;22.40;;;17.20;99.90;;;;;;5071235;28;20044;-68
2023/05/07 09:52:06;;;;;;;30.95;21.27;;;17.30;99.90;;;;;;5069775;28;20051;-69
2023/05/07 09:54:33;;;;;;;28.38;21.23;;;17.50;99.90;;;;;;5069669;28;20124;-69
2023/05/07 09:57:02;;;;;;;32.20;22.15;;;17.80;99.90;;;;;;5048810;28;20043;-69
2023/05/07 09:59:31;;;;;;;29.92;21.90;;;17.90;99.90;;;;;;5068259;28;20090;-68
2023/05/07 10:02:01;;;;;;;32.58;20.70;;;18.00;99.90;;;;;;5047694;28;20037;-68
2023/05/07 10:04:27;;;;;;;28.55;21.42;;;18.00;99.90;;;;;;5067623;28;20040;-69
2023/05/07 10:06:55;;;;;;;28.00;20.58;;;18.10;99.90;;;;;;5067857;28;20035;-69
2023/05/07 10:09:21;;;;;;;30.38;21.95;;;18.10;99.90;;;;;;5069974;28;20037;-69
2023/05/07 10:11:49;;;;;;;28.38;20.63;;;18.10;99.90;;;;;;5069602;28;20047;-69
2023/05/07 10:14:15;;;;;;;27.50;19.45;;;18.10;99.90;;;;;;5070843;28;20068;-69
2023/05/07 10:16:41;;;;;;;31.50;21.10;;;18.10;99.90;;;;;;5067600;28;20445;-68
2023/05/07 10:19:09;;;;;;;28.02;19.58;;;18.00;99.90;;;;;;5071871;28;20068;-67
2023/05/07 10:21:42;;;;;;;27.27;19.73;;;17.90;99.90;;;;;;5070862;28;20086;-68
2023/05/07 10:24:21;;;;;;;30.95;21.65;;;18.00;99.90;;;;;;5053491;28;20039;-68
2023/05/07 10:26:49;;;;;;;27.75;19.55;;;18.00;99.90;;;;;;5069487;28;20498;-68
2023/05/07 10:29:33;;;;;;;27.75;19.83;;;18.00;99.90;;;;;;5070642;28;20052;-68
2023/05/07 10:32:19;;;;;;;28.20;21.40;;;18.20;99.90;;;;;;5063314;28;20523;-68
2023/05/07 10:34:48;;;;;;;27.98;19.85;;;18.30;99.90;;;;;;5072257;28;20041;-68
2023/05/07 10:37:14;;;;;;;25.33;19.15;;;18.40;99.90;;;;;;5070095;28;20179;-68
2023/05/07 10:39:40;;;;;;;27.33;20.52;;;18.60;99.90;;;;;;5069441;28;20055;-68
2023/05/07 10:42:14;;;;;;;27.08;20.35;;;18.60;99.90;;;;;;5053480;28;20041;-68
2023/05/07 10:44:40;;;;;;;27.90;20.17;;;18.70;99.90;;;;;;5070477;28;20486;-68
2023/05/07 10:47:11;;;;;;;25.48;19.25;;;18.80;99.90;;;;;;5070756;28;20066;-68
2023/05/07 10:49:43;;;;;;;26.73;20.88;;;18.90;99.90;;;;;;5070407;28;20047;-68
2023/05/07 10:52:14;;;;;;;25.55;18.65;;;19.00;99.90;;;;;;5070429;28;20064;-68
2023/05/07 10:54:40;;;;;;;25.13;18.23;;;19.20;99.90;;;;;;5069304;28;20053;-68
2023/05/07 10:57:30;;;;;;;23.45;17.40;;;19.20;99.90;;;;;;5066738;28;20134;-68
2023/05/07 10:59:56;;;;;;;24.05;19.00;;;19.20;99.90;;;;;;5067837;28;20036;-69
2023/05/07 11:02:21;;;;;;;25.98;19.30;;;19.20;99.90;;;;;;5069530;28;20043;-68
2023/05/07 11:05:25;;;;;;;25.73;19.48;;;19.30;99.90;;;;;;5063565;28;20083;-68
2023/05/07 11:07:55;;;;;;;27.67;20.08;;;19.30;99.90;;;;;;5070879;28;20616;-68
2023/05/07 11:10:21;;;;;;;25.13;19.05;;;19.40;99.90;;;;;;5068352;28;20039;-68
2023/05/07 11:12:51;;;;;;;28.20;19.38;;;19.40;99.90;;;;;;5070503;28;20040;-68
2023/05/07 11:15:38;;;;;;;26.25;19.33;;;19.50;99.90;;;;;;5072352;28;20037;-68
2023/05/07 11:18:04;;;;;;;25.55;19.65;;;19.60;99.90;;;;;;5068946;28;20037;-68
2023/05/07 11:20:52;;;;;;;26.83;19.17;;;19.60;99.90;;;;;;5064949;28;20028;-68
2023/05/07 11:23:32;;;;;;;25.15;18.73;;;19.70;99.90;;;;;;5052546;28;20055;-68
2023/05/07 11:26:03;;;;;;;23.77;18.50;;;19.70;99.90;;;;;;5064945;28;20032;-67
2023/05/07 11:28:30;;;;;;;24.88;17.52;;;19.70;99.90;;;;;;5064209;28;20498;-68
2023/05/07 11:30:57;;;;;;;22.25;18.38;;;19.70;99.90;;;;;;5068589;28;20551;-68
2023/05/07 11:33:25;;;;;;;23.15;18.17;;;19.70;99.90;;;;;;5071692;28;20107;-67
2023/05/07 11:35:53;;;;;;;23.98;18.30;;;19.70;99.90;;;;;;5067364;28;20033;-67
2023/05/07 11:38:18;;;;;;;22.65;17.85;;;19.80;99.90;;;;;;5071455;28;20044;-67
2023/05/07 11:40:56;;;;;;;22.42;18.02;;;19.90;99.90;;;;;;5070881;28;20040;-67
2023/05/07 11:43:21;;;;;;;24.17;18.13;;;19.90;99.90;;;;;;5070224;28;20046;-68
2023/05/07 11:45:48;;;;;;;23.45;18.05;;;19.70;99.90;;;;;;5070618;28;20040;-68
2023/05/07 11:48:15;;;;;;;24.40;18.40;;;19.80;99.90;;;;;;5070546;28;20518;-68
2023/05/07 11:50:54;;;;;;;23.73;18.63;;;19.80;99.90;;;;;;5070782;28;20044;-68
2023/05/07 11:53:24;;;;;;;23.27;18.45;;;19.80;99.90;;;;;;5064169;28;20033;-67
2023/05/07 11:55:55;;;;;;;23.63;17.63;;;19.70;99.90;;;;;;5067545;28;20116;-69
2023/05/07 11:58:23;;;;;;;27.17;19.48;;;19.70;99.90;;;;;;5067302;28;20111;-68
2023/05/07 12:00:49;;;;;;;24.70;18.88;;;19.80;99.90;;;;;;5070318;28;20053;-68
2023/05/07 12:03:15;;;;;;;23.77;18.80;;;19.70;99.90;;;;;;5071121;28;20040;-69
2023/05/07 12:05:41;;;;;;;24.23;19.73;;;19.70;99.90;;;;;;5051517;28;20033;-69
2023/05/07 12:08:07;;;;;;;22.75;17.98;;;19.70;99.90;;;;;;5067338;28;20422;-69
2023/05/07 12:10:33;;;;;;;24.30;18.40;;;19.80;99.90;;;;;;5070128;28;20123;-69
2023/05/07 12:12:58;;;;;;;22.15;17.45;;;19.70;99.90;;;;;;5070095;28;20115;-68
2023/05/07 12:15:25;;;;;;;24.15;19.15;;;19.70;99.90;;;;;;5071532;28;20048;-68
2023/05/07 12:17:52;;;;;;;23.17;18.02;;;19.70;99.90;;;;;;5070303;28;20043;-68
2023/05/07 12:20:18;;;;;;;23.45;18.20;;;19.70;99.90;;;;;;5070711;28;20044;-68
2023/05/07 12:22:44;;;;;;;22.55;17.95;;;19.70;99.90;;;;;;5069317;28;20036;-69
2023/05/07 12:25:09;;;;;;;24.73;19.33;;;19.80;99.90;;;;;;5069864;28;20038;-69
2023/05/07 12:27:38;;;;;;;25.25;18.65;;;19.70;99.90;;;;;;5067554;28;20090;-69